sensor_id;sensor_type;location;lat;lon;timestamp;P1;durP1;ratioP1;P2;durP2;ratioP2
63945;SDS011;50122;56.330;43.838;2022-12-19T00:01:33;3.22;;;1.77;;
63945;SDS011;50122;56.330;43.838;2022-12-19T00:04:03;2.03;;;1.83;;
63945;SDS011;50122;56.330;43.838;2022-12-19T00:06:34;2.00;;;1.65;;
63945;SDS011;50122;56.330;43.838;2022-12-19T00:09:03;2.25;;;1.80;;
63945;SDS011;50122;56.330;43.838;2022-12-19T00:11:31;2.17;;;1.83;;
63945;SDS011;50122;56.330;43.838;2022-12-19T00:14:02;2.38;;;1.70;;
63945;SDS011;50122;56.330;43.838;2022-12-19T00:16:28;1.90;;;1.70;;
63945;SDS011;50122;56.330;43.838;2022-12-19T00:18:57;1.45;;;1.27;;
63945;SDS011;50122;56.330;43.838;2022-12-19T00:21:26;3.55;;;1.98;;
63945;SDS011;50122;56.330;43.838;2022-12-19T00:23:55;2.58;;;2.13;;
63945;SDS011;50122;56.330;43.838;2022-12-19T00:26:23;2.78;;;1.90;;
63945;SDS011;50122;56.330;43.838;2022-12-19T00:28:56;3.08;;;1.95;;
63945;SDS011;50122;56.330;43.838;2022-12-19T00:31:25;2.42;;;1.80;;
63945;SDS011;50122;56.330;43.838;2022-12-19T00:33:54;3.65;;;2.40;;
63945;SDS011;50122;56.330;43.838;2022-12-19T00:36:22;1.98;;;1.80;;
63945;SDS011;50122;56.330;43.838;2022-12-19T00:38:51;1.75;;;1.58;;
63945;SDS011;50122;56.330;43.838;2022-12-19T00:41:29;3.05;;;2.10;;
63945;SDS011;50122;56.330;43.838;2022-12-19T00:44:01;2.05;;;1.42;;
63945;SDS011;50122;56.330;43.838;2022-12-19T00:46:30;1.92;;;1.67;;
63945;SDS011;50122;56.330;43.838;2022-12-19T00:48:59;1.55;;;1.45;;
63945;SDS011;50122;56.330;43.838;2022-12-19T00:51:29;1.77;;;1.63;;
63945;SDS011;50122;56.330;43.838;2022-12-19T00:53:58;3.13;;;2.20;;
63945;SDS011;50122;56.330;43.838;2022-12-19T00:56:26;2.80;;;2.05;;
63945;SDS011;50122;56.330;43.838;2022-12-19T00:58:54;2.35;;;1.65;;
63945;SDS011;50122;56.330;43.838;2022-12-19T01:01:25;2.67;;;2.33;;
63945;SDS011;50122;56.330;43.838;2022-12-19T01:03:56;2.80;;;1.92;;
63945;SDS011;50122;56.330;43.838;2022-12-19T01:06:45;1.70;;;1.60;;
63945;SDS011;50122;56.330;43.838;2022-12-19T01:09:12;5.03;;;2.95;;
63945;SDS011;50122;56.330;43.838;2022-12-19T01:11:39;3.80;;;2.53;;
63945;SDS011;50122;56.330;43.838;2022-12-19T01:14:24;3.50;;;2.55;;
63945;SDS011;50122;56.330;43.838;2022-12-19T01:16:51;5.25;;;2.55;;
63945;SDS011;50122;56.330;43.838;2022-12-19T01:19:18;2.33;;;2.13;;
63945;SDS011;50122;56.330;43.838;2022-12-19T01:21:45;3.90;;;2.80;;
63945;SDS011;50122;56.330;43.838;2022-12-19T01:24:12;5.03;;;2.88;;
63945;SDS011;50122;56.330;43.838;2022-12-19T01:26:44;4.38;;;2.67;;
63945;SDS011;50122;56.330;43.838;2022-12-19T01:29:11;4.03;;;2.58;;
63945;SDS011;50122;56.330;43.838;2022-12-19T01:31:38;3.13;;;2.10;;
63945;SDS011;50122;56.330;43.838;2022-12-19T01:34:05;5.65;;;2.58;;
63945;SDS011;50122;56.330;43.838;2022-12-19T01:36:32;1.63;;;1.52;;
63945;SDS011;50122;56.330;43.838;2022-12-19T01:39:05;4.80;;;2.92;;
63945;SDS011;50122;56.330;43.838;2022-12-19T01:41:31;4.03;;;2.60;;
63945;SDS011;50122;56.330;43.838;2022-12-19T01:43:59;4.38;;;2.67;;
63945;SDS011;50122;56.330;43.838;2022-12-19T01:46:32;6.22;;;3.00;;
63945;SDS011;50122;56.330;43.838;2022-12-19T01:51:40;2.03;;;1.63;;
63945;SDS011;50122;56.330;43.838;2022-12-19T01:54:13;4.32;;;2.58;;
63945;SDS011;50122;56.330;43.838;2022-12-19T01:56:44;4.72;;;2.72;;
63945;SDS011;50122;56.330;43.838;2022-12-19T01:59:15;3.05;;;2.45;;
63945;SDS011;50122;56.330;43.838;2022-12-19T02:01:50;3.38;;;2.05;;
63945;SDS011;50122;56.330;43.838;2022-12-19T02:04:24;3.92;;;2.13;;
63945;SDS011;50122;56.330;43.838;2022-12-19T02:06:57;2.65;;;1.90;;
63945;SDS011;50122;56.330;43.838;2022-12-19T02:09:40;3.92;;;2.70;;
63945;SDS011;50122;56.330;43.838;2022-12-19T02:12:09;4.88;;;2.63;;
63945;SDS011;50122;56.330;43.838;2022-12-19T02:14:36;4.88;;;2.85;;
63945;SDS011;50122;56.330;43.838;2022-12-19T02:17:09;2.75;;;1.95;;
63945;SDS011;50122;56.330;43.838;2022-12-19T02:25:41;2.85;;;1.92;;
63945;SDS011;50122;56.330;43.838;2022-12-19T02:31:28;3.10;;;1.98;;
63945;SDS011;50122;56.330;43.838;2022-12-19T02:34:10;1.83;;;1.67;;
63945;SDS011;50122;56.330;43.838;2022-12-19T02:36:49;2.30;;;2.00;;
63945;SDS011;50122;56.330;43.838;2022-12-19T02:39:23;2.50;;;1.83;;
63945;SDS011;50122;56.330;43.838;2022-12-19T02:41:58;1.92;;;1.80;;
63945;SDS011;50122;56.330;43.838;2022-12-19T02:44:30;1.73;;;1.63;;
63945;SDS011;50122;56.330;43.838;2022-12-19T02:47:05;5.85;;;3.40;;
63945;SDS011;50122;56.330;43.838;2022-12-19T02:49:34;2.47;;;2.28;;
63945;SDS011;50122;56.330;43.838;2022-12-19T02:52:12;2.72;;;1.80;;
63945;SDS011;50122;56.330;43.838;2022-12-19T02:54:47;6.80;;;3.38;;
63945;SDS011;50122;56.330;43.838;2022-12-19T02:57:20;3.97;;;3.13;;
63945;SDS011;50122;56.330;43.838;2022-12-19T03:02:33;3.35;;;2.47;;
63945;SDS011;50122;56.330;43.838;2022-12-19T03:07:57;2.53;;;1.95;;
63945;SDS011;50122;56.330;43.838;2022-12-19T03:10:40;2.20;;;1.70;;
63945;SDS011;50122;56.330;43.838;2022-12-19T03:13:12;3.47;;;2.63;;
63945;SDS011;50122;56.330;43.838;2022-12-19T03:15:46;1.23;;;1.20;;
63945;SDS011;50122;56.330;43.838;2022-12-19T03:18:14;2.20;;;1.70;;
63945;SDS011;50122;56.330;43.838;2022-12-19T03:23:15;3.38;;;2.17;;
63945;SDS011;50122;56.330;43.838;2022-12-19T03:25:43;4.38;;;2.70;;
63945;SDS011;50122;56.330;43.838;2022-12-19T03:28:18;3.03;;;2.20;;
63945;SDS011;50122;56.330;43.838;2022-12-19T03:30:52;5.32;;;3.25;;
63945;SDS011;50122;56.330;43.838;2022-12-19T03:33:20;4.57;;;2.33;;
63945;SDS011;50122;56.330;43.838;2022-12-19T03:35:51;4.68;;;2.42;;
63945;SDS011;50122;56.330;43.838;2022-12-19T03:38:20;5.90;;;3.00;;
63945;SDS011;50122;56.330;43.838;2022-12-19T03:40:55;5.82;;;3.10;;
63945;SDS011;50122;56.330;43.838;2022-12-19T03:43:24;7.20;;;3.35;;
63945;SDS011;50122;56.330;43.838;2022-12-19T03:45:57;5.18;;;3.45;;
63945;SDS011;50122;56.330;43.838;2022-12-19T03:50:59;5.57;;;3.75;;
63945;SDS011;50122;56.330;43.838;2022-12-19T03:53:46;5.40;;;3.50;;
63945;SDS011;50122;56.330;43.838;2022-12-19T03:56:38;6.07;;;3.35;;
63945;SDS011;50122;56.330;43.838;2022-12-19T03:59:10;5.18;;;3.33;;
63945;SDS011;50122;56.330;43.838;2022-12-19T04:01:44;7.50;;;3.20;;
63945;SDS011;50122;56.330;43.838;2022-12-19T04:04:14;2.97;;;2.22;;
63945;SDS011;50122;56.330;43.838;2022-12-19T04:06:44;5.05;;;3.00;;
63945;SDS011;50122;56.330;43.838;2022-12-19T04:09:13;6.88;;;3.95;;
63945;SDS011;50122;56.330;43.838;2022-12-19T04:11:49;4.60;;;2.38;;
63945;SDS011;50122;56.330;43.838;2022-12-19T04:14:21;9.15;;;4.60;;
63945;SDS011;50122;56.330;43.838;2022-12-19T04:17:10;3.67;;;2.70;;
63945;SDS011;50122;56.330;43.838;2022-12-19T04:19:51;8.15;;;4.05;;
63945;SDS011;50122;56.330;43.838;2022-12-19T04:22:29;3.75;;;2.50;;
63945;SDS011;50122;56.330;43.838;2022-12-19T04:25:00;2.20;;;2.03;;
63945;SDS011;50122;56.330;43.838;2022-12-19T04:27:31;5.25;;;2.38;;
63945;SDS011;50122;56.330;43.838;2022-12-19T04:30:00;4.80;;;2.78;;
63945;SDS011;50122;56.330;43.838;2022-12-19T04:32:27;5.47;;;3.20;;
63945;SDS011;50122;56.330;43.838;2022-12-19T04:34:58;3.05;;;2.75;;
63945;SDS011;50122;56.330;43.838;2022-12-19T04:37:24;6.65;;;4.43;;
63945;SDS011;50122;56.330;43.838;2022-12-19T04:39:51;6.75;;;3.75;;
63945;SDS011;50122;56.330;43.838;2022-12-19T04:42:18;5.38;;;3.38;;
63945;SDS011;50122;56.330;43.838;2022-12-19T04:44:47;5.90;;;3.05;;
63945;SDS011;50122;56.330;43.838;2022-12-19T04:47:14;3.70;;;2.58;;
63945;SDS011;50122;56.330;43.838;2022-12-19T04:49:41;4.18;;;2.58;;
63945;SDS011;50122;56.330;43.838;2022-12-19T04:52:07;7.03;;;3.90;;
63945;SDS011;50122;56.330;43.838;2022-12-19T04:54:34;4.68;;;2.33;;
63945;SDS011;50122;56.330;43.838;2022-12-19T04:57:01;4.82;;;3.08;;
63945;SDS011;50122;56.330;43.838;2022-12-19T04:59:27;5.28;;;3.45;;
63945;SDS011;50122;56.330;43.838;2022-12-19T05:01:54;6.55;;;3.50;;
63945;SDS011;50122;56.330;43.838;2022-12-19T05:04:21;4.70;;;2.92;;
63945;SDS011;50122;56.330;43.838;2022-12-19T05:06:48;7.38;;;4.00;;
63945;SDS011;50122;56.330;43.838;2022-12-19T05:09:15;4.07;;;3.28;;
63945;SDS011;50122;56.330;43.838;2022-12-19T05:11:43;2.75;;;2.00;;
63945;SDS011;50122;56.330;43.838;2022-12-19T05:14:12;4.55;;;2.88;;
63945;SDS011;50122;56.330;43.838;2022-12-19T05:16:40;4.75;;;3.38;;
63945;SDS011;50122;56.330;43.838;2022-12-19T05:19:07;5.57;;;2.67;;
63945;SDS011;50122;56.330;43.838;2022-12-19T05:21:34;3.08;;;1.90;;
63945;SDS011;50122;56.330;43.838;2022-12-19T05:24:00;13.45;;;9.40;;
63945;SDS011;50122;56.330;43.838;2022-12-19T05:26:27;28.92;;;11.80;;
63945;SDS011;50122;56.330;43.838;2022-12-19T05:28:53;14.52;;;7.60;;
63945;SDS011;50122;56.330;43.838;2022-12-19T17:05:04;9.40;;;5.90;;
63945;SDS011;50122;56.330;43.838;2022-12-19T17:07:31;3.50;;;3.10;;
63945;SDS011;50122;56.330;43.838;2022-12-19T17:09:57;9.23;;;5.35;;
63945;SDS011;50122;56.330;43.838;2022-12-19T17:12:24;14.10;;;8.10;;
63945;SDS011;50122;56.330;43.838;2022-12-19T17:14:52;12.25;;;5.68;;
63945;SDS011;50122;56.330;43.838;2022-12-19T17:17:19;7.93;;;5.65;;
63945;SDS011;50122;56.330;43.838;2022-12-19T17:19:46;8.65;;;5.00;;
63945;SDS011;50122;56.330;43.838;2022-12-19T17:22:14;7.82;;;4.68;;
63945;SDS011;50122;56.330;43.838;2022-12-19T17:24:46;18.17;;;9.07;;
63945;SDS011;50122;56.330;43.838;2022-12-19T17:27:14;14.52;;;7.95;;
63945;SDS011;50122;56.330;43.838;2022-12-19T17:29:42;15.52;;;7.95;;
63945;SDS011;50122;56.330;43.838;2022-12-19T17:32:14;17.75;;;9.07;;
63945;SDS011;50122;56.330;43.838;2022-12-19T17:34:48;20.35;;;9.95;;
63945;SDS011;50122;56.330;43.838;2022-12-19T17:37:15;16.85;;;9.15;;
63945;SDS011;50122;56.330;43.838;2022-12-19T17:39:42;13.25;;;7.50;;
63945;SDS011;50122;56.330;43.838;2022-12-19T17:42:13;18.13;;;8.82;;
63945;SDS011;50122;56.330;43.838;2022-12-19T17:44:47;14.27;;;8.00;;
63945;SDS011;50122;56.330;43.838;2022-12-19T17:47:14;18.80;;;7.53;;
63945;SDS011;50122;56.330;43.838;2022-12-19T17:49:42;17.67;;;9.30;;
63945;SDS011;50122;56.330;43.838;2022-12-19T17:52:12;12.40;;;7.25;;
63945;SDS011;50122;56.330;43.838;2022-12-19T17:54:40;18.02;;;9.23;;
63945;SDS011;50122;56.330;43.838;2022-12-19T17:57:12;18.95;;;10.20;;
63945;SDS011;50122;56.330;43.838;2022-12-19T17:59:42;19.70;;;10.77;;
63945;SDS011;50122;56.330;43.838;2022-12-19T18:04:48;15.55;;;9.55;;
63945;SDS011;50122;56.330;43.838;2022-12-19T18:07:16;18.45;;;9.20;;
63945;SDS011;50122;56.330;43.838;2022-12-19T18:09:43;18.65;;;9.07;;
63945;SDS011;50122;56.330;43.838;2022-12-19T18:12:10;18.35;;;9.02;;
63945;SDS011;50122;56.330;43.838;2022-12-19T18:14:37;22.77;;;9.25;;
63945;SDS011;50122;56.330;43.838;2022-12-19T18:17:04;18.00;;;8.80;;
63945;SDS011;50122;56.330;43.838;2022-12-19T18:19:31;21.92;;;9.80;;
63945;SDS011;50122;56.330;43.838;2022-12-19T18:21:59;26.85;;;11.75;;
63945;SDS011;50122;56.330;43.838;2022-12-19T18:24:26;19.27;;;9.38;;
63945;SDS011;50122;56.330;43.838;2022-12-19T18:26:54;24.88;;;10.35;;
63945;SDS011;50122;56.330;43.838;2022-12-19T18:29:21;21.58;;;10.43;;
63945;SDS011;50122;56.330;43.838;2022-12-19T18:31:48;20.83;;;11.02;;
63945;SDS011;50122;56.330;43.838;2022-12-19T18:34:20;18.80;;;10.38;;
63945;SDS011;50122;56.330;43.838;2022-12-19T18:36:49;20.23;;;10.40;;
63945;SDS011;50122;56.330;43.838;2022-12-19T18:39:17;21.63;;;9.55;;
63945;SDS011;50122;56.330;43.838;2022-12-19T18:41:49;18.42;;;10.10;;
63945;SDS011;50122;56.330;43.838;2022-12-19T18:44:17;16.60;;;9.38;;
63945;SDS011;50122;56.330;43.838;2022-12-19T18:46:47;19.08;;;10.73;;
63945;SDS011;50122;56.330;43.838;2022-12-19T18:49:15;19.95;;;9.82;;
63945;SDS011;50122;56.330;43.838;2022-12-19T18:51:42;17.27;;;7.40;;
63945;SDS011;50122;56.330;43.838;2022-12-19T18:54:19;19.15;;;10.13;;
63945;SDS011;50122;56.330;43.838;2022-12-19T18:56:47;17.80;;;9.18;;
63945;SDS011;50122;56.330;43.838;2022-12-19T18:59:15;20.40;;;10.50;;
63945;SDS011;50122;56.330;43.838;2022-12-19T19:01:43;15.77;;;8.77;;
63945;SDS011;50122;56.330;43.838;2022-12-19T19:04:12;24.85;;;12.35;;
63945;SDS011;50122;56.330;43.838;2022-12-19T19:06:43;18.17;;;10.35;;
63945;SDS011;50122;56.330;43.838;2022-12-19T19:09:17;19.58;;;10.52;;
63945;SDS011;50122;56.330;43.838;2022-12-19T19:11:45;20.67;;;11.00;;
63945;SDS011;50122;56.330;43.838;2022-12-19T19:14:12;20.35;;;11.30;;
63945;SDS011;50122;56.330;43.838;2022-12-19T19:16:38;22.77;;;12.25;;
63945;SDS011;50122;56.330;43.838;2022-12-19T19:19:06;26.17;;;12.55;;
63945;SDS011;50122;56.330;43.838;2022-12-19T19:21:35;15.25;;;8.98;;
63945;SDS011;50122;56.330;43.838;2022-12-19T19:24:18;22.38;;;11.48;;
63945;SDS011;50122;56.330;43.838;2022-12-19T19:26:47;21.63;;;9.48;;
63945;SDS011;50122;56.330;43.838;2022-12-19T19:29:14;21.95;;;9.68;;
63945;SDS011;50122;56.330;43.838;2022-12-19T19:31:44;13.15;;;8.73;;
63945;SDS011;50122;56.330;43.838;2022-12-19T19:34:22;22.38;;;11.35;;
63945;SDS011;50122;56.330;43.838;2022-12-19T19:36:53;22.00;;;10.73;;
63945;SDS011;50122;56.330;43.838;2022-12-19T19:39:25;21.75;;;11.18;;
63945;SDS011;50122;56.330;43.838;2022-12-19T19:41:53;30.35;;;13.13;;
63945;SDS011;50122;56.330;43.838;2022-12-19T19:44:21;53.10;;;22.50;;
63945;SDS011;50122;56.330;43.838;2022-12-19T19:46:51;53.42;;;23.65;;
63945;SDS011;50122;56.330;43.838;2022-12-19T19:49:18;54.78;;;24.80;;
63945;SDS011;50122;56.330;43.838;2022-12-19T19:51:45;46.30;;;18.67;;
63945;SDS011;50122;56.330;43.838;2022-12-19T19:54:13;30.83;;;13.27;;
63945;SDS011;50122;56.330;43.838;2022-12-19T19:56:39;27.08;;;13.48;;
63945;SDS011;50122;56.330;43.838;2022-12-19T19:59:06;22.20;;;10.05;;
63945;SDS011;50122;56.330;43.838;2022-12-19T20:01:33;29.92;;;12.10;;
63945;SDS011;50122;56.330;43.838;2022-12-19T20:04:01;31.13;;;13.30;;
63945;SDS011;50122;56.330;43.838;2022-12-19T20:06:28;42.50;;;15.85;;
63945;SDS011;50122;56.330;43.838;2022-12-19T20:08:55;62.05;;;20.48;;
63945;SDS011;50122;56.330;43.838;2022-12-19T20:11:22;47.65;;;18.13;;
63945;SDS011;50122;56.330;43.838;2022-12-19T20:13:48;38.65;;;17.90;;
63945;SDS011;50122;56.330;43.838;2022-12-19T20:16:16;25.25;;;12.48;;
63945;SDS011;50122;56.330;43.838;2022-12-19T20:18:46;27.10;;;11.77;;
63945;SDS011;50122;56.330;43.838;2022-12-19T20:21:17;18.65;;;8.93;;
63945;SDS011;50122;56.330;43.838;2022-12-19T20:23:45;14.85;;;8.48;;
63945;SDS011;50122;56.330;43.838;2022-12-19T20:26:12;10.95;;;7.57;;
63945;SDS011;50122;56.330;43.838;2022-12-19T20:28:40;14.98;;;8.63;;
63945;SDS011;50122;56.330;43.838;2022-12-19T20:31:14;17.15;;;8.18;;
63945;SDS011;50122;56.330;43.838;2022-12-19T20:33:42;15.90;;;8.05;;
63945;SDS011;50122;56.330;43.838;2022-12-19T20:36:09;17.17;;;9.93;;
63945;SDS011;50122;56.330;43.838;2022-12-19T20:38:37;25.35;;;11.30;;
63945;SDS011;50122;56.330;43.838;2022-12-19T20:41:04;23.90;;;12.25;;
63945;SDS011;50122;56.330;43.838;2022-12-19T20:43:31;21.50;;;11.68;;
63945;SDS011;50122;56.330;43.838;2022-12-19T20:45:59;17.10;;;10.43;;
63945;SDS011;50122;56.330;43.838;2022-12-19T20:48:27;23.65;;;12.18;;
63945;SDS011;50122;56.330;43.838;2022-12-19T20:50:55;16.85;;;9.98;;
63945;SDS011;50122;56.330;43.838;2022-12-19T20:53:22;19.80;;;10.07;;
63945;SDS011;50122;56.330;43.838;2022-12-19T20:55:50;23.58;;;10.13;;
63945;SDS011;50122;56.330;43.838;2022-12-19T20:58:26;21.83;;;11.07;;
63945;SDS011;50122;56.330;43.838;2022-12-19T21:01:01;19.40;;;10.40;;
63945;SDS011;50122;56.330;43.838;2022-12-19T21:03:38;20.98;;;10.25;;
63945;SDS011;50122;56.330;43.838;2022-12-19T21:06:06;19.90;;;10.90;;
63945;SDS011;50122;56.330;43.838;2022-12-19T21:08:34;19.73;;;8.88;;
63945;SDS011;50122;56.330;43.838;2022-12-19T21:11:02;22.45;;;10.70;;
63945;SDS011;50122;56.330;43.838;2022-12-19T21:13:29;19.45;;;10.45;;
63945;SDS011;50122;56.330;43.838;2022-12-19T21:15:57;20.08;;;9.68;;
63945;SDS011;50122;56.330;43.838;2022-12-19T21:18:25;19.63;;;9.20;;
63945;SDS011;50122;56.330;43.838;2022-12-19T21:20:53;23.05;;;10.75;;
63945;SDS011;50122;56.330;43.838;2022-12-19T21:23:21;20.90;;;10.52;;
63945;SDS011;50122;56.330;43.838;2022-12-19T21:25:48;23.52;;;11.60;;
63945;SDS011;50122;56.330;43.838;2022-12-19T21:28:16;24.38;;;12.13;;
63945;SDS011;50122;56.330;43.838;2022-12-19T21:30:42;24.05;;;11.55;;
63945;SDS011;50122;56.330;43.838;2022-12-19T21:33:09;21.48;;;10.70;;
63945;SDS011;50122;56.330;43.838;2022-12-19T21:35:37;23.25;;;10.50;;
63945;SDS011;50122;56.330;43.838;2022-12-19T21:38:04;23.00;;;10.60;;
63945;SDS011;50122;56.330;43.838;2022-12-19T21:40:30;25.10;;;12.73;;
63945;SDS011;50122;56.330;43.838;2022-12-19T21:42:57;21.75;;;11.85;;
63945;SDS011;50122;56.330;43.838;2022-12-19T21:45:24;26.90;;;13.70;;
63945;SDS011;50122;56.330;43.838;2022-12-19T21:47:50;21.75;;;10.77;;
63945;SDS011;50122;56.330;43.838;2022-12-19T21:50:18;27.23;;;13.30;;
63945;SDS011;50122;56.330;43.838;2022-12-19T21:52:44;36.80;;;16.23;;
63945;SDS011;50122;56.330;43.838;2022-12-19T21:55:15;31.70;;;14.65;;
63945;SDS011;50122;56.330;43.838;2022-12-19T21:57:41;28.20;;;13.82;;
63945;SDS011;50122;56.330;43.838;2022-12-19T22:00:09;25.13;;;11.70;;
63945;SDS011;50122;56.330;43.838;2022-12-19T22:02:38;26.52;;;12.20;;
63945;SDS011;50122;56.330;43.838;2022-12-19T22:05:27;22.98;;;10.82;;
63945;SDS011;50122;56.330;43.838;2022-12-19T22:07:53;19.45;;;11.65;;
63945;SDS011;50122;56.330;43.838;2022-12-19T22:10:20;32.85;;;15.85;;
63945;SDS011;50122;56.330;43.838;2022-12-19T22:12:48;32.88;;;16.15;;
63945;SDS011;50122;56.330;43.838;2022-12-19T22:15:14;38.17;;;18.20;;
63945;SDS011;50122;56.330;43.838;2022-12-19T22:17:41;33.92;;;17.27;;
63945;SDS011;50122;56.330;43.838;2022-12-19T22:20:09;32.95;;;15.18;;
63945;SDS011;50122;56.330;43.838;2022-12-19T22:22:35;23.52;;;12.05;;
63945;SDS011;50122;56.330;43.838;2022-12-19T22:25:02;23.20;;;12.20;;
63945;SDS011;50122;56.330;43.838;2022-12-19T22:27:29;21.95;;;11.32;;
63945;SDS011;50122;56.330;43.838;2022-12-19T22:29:56;24.60;;;12.93;;
63945;SDS011;50122;56.330;43.838;2022-12-19T22:32:22;22.08;;;10.77;;
63945;SDS011;50122;56.330;43.838;2022-12-19T22:34:49;32.08;;;13.65;;
63945;SDS011;50122;56.330;43.838;2022-12-19T22:37:16;28.73;;;14.38;;
63945;SDS011;50122;56.330;43.838;2022-12-19T22:39:44;28.00;;;14.40;;
63945;SDS011;50122;56.330;43.838;2022-12-19T22:42:10;22.00;;;10.57;;
63945;SDS011;50122;56.330;43.838;2022-12-19T22:44:37;22.17;;;10.75;;
63945;SDS011;50122;56.330;43.838;2022-12-19T22:47:04;27.25;;;13.20;;
63945;SDS011;50122;56.330;43.838;2022-12-19T22:49:30;29.70;;;13.90;;
63945;SDS011;50122;56.330;43.838;2022-12-19T22:51:57;25.35;;;12.13;;
63945;SDS011;50122;56.330;43.838;2022-12-19T22:54:25;24.80;;;13.07;;
63945;SDS011;50122;56.330;43.838;2022-12-19T22:56:51;28.83;;;14.23;;
63945;SDS011;50122;56.330;43.838;2022-12-19T22:59:18;25.33;;;12.15;;
63945;SDS011;50122;56.330;43.838;2022-12-19T23:01:46;24.52;;;11.27;;
63945;SDS011;50122;56.330;43.838;2022-12-19T23:04:13;22.88;;;12.35;;
63945;SDS011;50122;56.330;43.838;2022-12-19T23:06:41;24.33;;;11.40;;
63945;SDS011;50122;56.330;43.838;2022-12-19T23:09:10;26.65;;;12.10;;
63945;SDS011;50122;56.330;43.838;2022-12-19T23:11:39;22.58;;;11.30;;
63945;SDS011;50122;56.330;43.838;2022-12-19T23:14:09;22.50;;;10.70;;
63945;SDS011;50122;56.330;43.838;2022-12-19T23:16:38;24.63;;;10.88;;
63945;SDS011;50122;56.330;43.838;2022-12-19T23:19:05;22.42;;;11.40;;
63945;SDS011;50122;56.330;43.838;2022-12-19T23:21:32;24.50;;;12.43;;
63945;SDS011;50122;56.330;43.838;2022-12-19T23:23:58;19.35;;;11.60;;
63945;SDS011;50122;56.330;43.838;2022-12-19T23:26:26;25.15;;;13.68;;
63945;SDS011;50122;56.330;43.838;2022-12-19T23:28:58;25.73;;;13.63;;
63945;SDS011;50122;56.330;43.838;2022-12-19T23:31:27;28.25;;;13.70;;
63945;SDS011;50122;56.330;43.838;2022-12-19T23:33:54;27.05;;;12.32;;
63945;SDS011;50122;56.330;43.838;2022-12-19T23:36:22;30.27;;;14.60;;
63945;SDS011;50122;56.330;43.838;2022-12-19T23:39:10;25.67;;;12.45;;
63945;SDS011;50122;56.330;43.838;2022-12-19T23:41:37;27.20;;;11.27;;
63945;SDS011;50122;56.330;43.838;2022-12-19T23:44:05;25.10;;;12.27;;
63945;SDS011;50122;56.330;43.838;2022-12-19T23:46:31;18.95;;;11.13;;
63945;SDS011;50122;56.330;43.838;2022-12-19T23:48:58;18.00;;;9.95;;
63945;SDS011;50122;56.330;43.838;2022-12-19T23:51:26;19.73;;;10.02;;
63945;SDS011;50122;56.330;43.838;2022-12-19T23:53:53;17.30;;;9.80;;
63945;SDS011;50122;56.330;43.838;2022-12-19T23:56:22;18.42;;;10.68;;
63945;SDS011;50122;56.330;43.838;2022-12-19T23:58:50;18.77;;;10.25;;
